createdAt,value
2018-02-05T00:00:47.334Z,991.48
2018-02-05T00:01:47.286Z,991.47
2018-02-05T00:02:47.272Z,991.42
2018-02-05T00:03:47.175Z,991.45
2018-02-05T00:04:47.143Z,991.41
2018-02-05T00:05:47.095Z,991.42
2018-02-05T00:06:47.035Z,991.44
2018-02-05T00:07:46.979Z,991.42
2018-02-05T00:08:46.928Z,991.47
2018-02-05T00:09:46.866Z,991.45
2018-02-05T00:10:46.828Z,991.47
2018-02-05T00:11:46.759Z,991.48
2018-02-05T00:12:46.705Z,991.45
2018-02-05T00:13:46.646Z,991.47
2018-02-05T00:14:46.594Z,991.44
2018-02-05T00:15:46.541Z,991.46
2018-02-05T00:16:46.489Z,991.46
2018-02-05T00:17:46.433Z,991.46
2018-02-05T00:18:46.392Z,991.43
2018-02-05T00:19:46.341Z,991.47
2018-02-05T00:20:46.283Z,991.44
2018-02-05T00:21:46.235Z,991.48
2018-02-05T00:22:46.169Z,991.48
2018-02-05T00:23:46.126Z,991.48
2018-02-05T00:24:46.086Z,991.49
2018-02-05T00:25:46.012Z,991.47
2018-02-05T00:26:45.982Z,991.46
2018-02-05T00:27:45.906Z,991.49
2018-02-05T00:28:45.870Z,991.47
2018-02-05T00:29:45.812Z,991.47
2018-02-05T00:30:45.748Z,991.49
2018-02-05T00:31:45.687Z,991.49
2018-02-05T00:32:45.638Z,991.53
2018-02-05T00:33:45.647Z,991.50
2018-02-05T00:34:45.544Z,991.46
2018-02-05T00:35:45.524Z,991.47
2018-02-05T00:36:45.451Z,991.53
2018-02-05T00:37:45.367Z,991.51
2018-02-05T00:38:45.309Z,991.54
2018-02-05T00:39:45.268Z,991.52
2018-02-05T00:40:45.207Z,991.50
2018-02-05T00:41:45.158Z,991.50
2018-02-05T00:42:45.097Z,991.49
2018-02-05T00:43:45.041Z,991.53
2018-02-05T00:44:44.999Z,991.52
2018-02-05T00:45:44.951Z,991.55
2018-02-05T00:46:44.888Z,991.57
2018-02-05T00:47:44.848Z,991.53
2018-02-05T00:48:44.775Z,991.57
2018-02-05T00:49:44.739Z,991.55
2018-02-05T00:50:44.667Z,991.56
2018-02-05T00:51:44.621Z,991.54
2018-02-05T00:52:44.565Z,991.55
2018-02-05T00:53:44.511Z,991.54
2018-02-05T00:54:44.466Z,991.55
2018-02-05T00:55:44.416Z,991.57
2018-02-05T00:56:44.345Z,991.58
2018-02-05T00:57:44.295Z,991.58
2018-02-05T00:58:44.265Z,991.58
2018-02-05T00:59:44.189Z,991.61
2018-02-05T01:00:44.134Z,991.64
2018-02-05T01:01:44.080Z,991.62
2018-02-05T01:02:44.060Z,991.65
2018-02-05T01:03:44.004Z,991.65
2018-02-05T01:04:43.919Z,991.67
2018-02-05T01:05:43.864Z,991.68
2018-02-05T01:06:43.812Z,991.66
2018-02-05T01:07:43.764Z,991.66
2018-02-05T01:08:43.704Z,991.71
2018-02-05T01:09:43.640Z,991.70
2018-02-05T01:10:43.590Z,991.72
2018-02-05T01:11:43.541Z,991.77
2018-02-05T01:12:43.482Z,991.70
2018-02-05T01:13:43.451Z,991.73
2018-02-05T01:14:43.385Z,991.73
2018-02-05T01:15:43.318Z,991.75
2018-02-05T01:16:43.280Z,991.73
2018-02-05T01:17:43.208Z,991.74
2018-02-05T01:18:43.159Z,991.77
2018-02-05T01:19:43.138Z,991.71
2018-02-05T01:20:43.100Z,991.72
2018-02-05T01:21:42.996Z,991.69
2018-02-05T01:22:42.947Z,991.69
2018-02-05T01:23:42.905Z,991.71
2018-02-05T01:24:42.838Z,991.70
2018-02-05T01:25:42.781Z,991.74
2018-02-05T01:26:42.740Z,991.76
2018-02-05T01:27:42.684Z,991.70
2018-02-05T01:28:42.638Z,991.73
2018-02-05T01:29:42.583Z,991.73
2018-02-05T01:30:42.539Z,991.76
2018-02-05T01:31:42.459Z,991.70
2018-02-05T01:32:42.431Z,991.78
2018-02-05T01:33:42.349Z,991.69
2018-02-05T01:34:42.309Z,991.70
2018-02-05T01:35:42.267Z,991.69
2018-02-05T01:36:42.192Z,991.72
2018-02-05T01:37:42.141Z,991.70
2018-02-05T01:38:42.091Z,991.75
2018-02-05T01:39:42.032Z,991.68
2018-02-05T01:40:41.983Z,991.71
2018-02-05T01:41:41.933Z,991.71
2018-02-05T01:42:41.861Z,991.75
2018-02-05T01:43:41.818Z,991.74
2018-02-05T01:44:41.767Z,991.78
2018-02-05T01:45:41.731Z,991.72
2018-02-05T01:46:41.644Z,991.76
2018-02-05T01:47:41.597Z,991.75
2018-02-05T01:48:41.535Z,991.75
2018-02-05T01:49:41.484Z,991.70
2018-02-05T01:50:41.438Z,991.71
2018-02-05T01:51:41.377Z,991.72
2018-02-05T01:52:41.322Z,991.71
2018-02-05T01:53:41.268Z,991.76
2018-02-05T01:54:41.223Z,991.74
2018-02-05T01:55:41.173Z,991.73
2018-02-05T01:56:41.098Z,991.74
2018-02-05T01:57:41.070Z,991.73
2018-02-05T01:58:41.012Z,991.78
2018-02-05T01:59:40.948Z,991.76
2018-02-05T02:00:40.890Z,991.75
2018-02-05T02:01:40.830Z,991.79
2018-02-05T02:02:49.067Z,991.80
2018-02-05T02:04:34.377Z,991.79
2018-02-05T02:05:34.305Z,991.79
2018-02-05T02:07:29.248Z,991.81
2018-02-05T02:08:29.135Z,991.80
2018-02-05T02:10:22.644Z,991.84
2018-02-05T02:11:22.125Z,991.85
2018-02-05T02:13:16.117Z,991.86
2018-02-05T02:14:16.014Z,991.85
2018-02-05T02:16:10.530Z,991.84
2018-02-05T02:17:10.428Z,991.86
2018-02-05T02:19:03.973Z,991.88
2018-02-05T02:20:03.933Z,991.89
2018-02-05T02:21:57.174Z,991.89
2018-02-05T02:22:57.318Z,991.85
2018-02-05T02:24:51.785Z,991.89
2018-02-05T02:25:51.742Z,991.89
2018-02-05T02:27:44.857Z,991.91
2018-02-05T02:28:44.723Z,991.91
2018-02-05T02:30:37.726Z,991.92
2018-02-05T02:31:37.704Z,991.93
2018-02-05T02:33:31.213Z,991.92
2018-02-05T02:34:31.028Z,991.97
2018-02-05T02:36:24.662Z,991.97
2018-02-05T02:37:24.538Z,991.95
2018-02-05T02:39:19.092Z,991.96
2018-02-05T02:40:18.668Z,992.02
2018-02-05T02:42:12.122Z,992.01
2018-02-05T02:43:12.362Z,992.05
2018-02-05T02:45:05.884Z,992.02
2018-02-05T02:46:05.902Z,992.09
2018-02-05T02:48:00.350Z,992.06
2018-02-05T02:49:00.247Z,992.08
2018-02-05T02:50:53.945Z,992.07
2018-02-05T02:51:53.343Z,992.09
2018-02-05T02:53:48.200Z,992.04
2018-02-05T02:54:48.122Z,992.03
2018-02-05T02:56:42.295Z,992.06
2018-02-05T02:57:42.201Z,992.01
2018-02-05T02:59:36.091Z,992.02
2018-02-05T03:00:35.980Z,991.97
2018-02-05T03:02:30.453Z,991.99
2018-02-05T03:03:30.335Z,991.96
2018-02-05T03:05:24.457Z,992.02
2018-02-05T03:06:24.434Z,992.02
2018-02-05T03:08:18.153Z,992.02
2018-02-05T03:09:18.187Z,992.04
2018-02-05T03:11:12.328Z,992.11
2018-02-05T03:12:13.000Z,992.14
2018-02-05T03:14:07.104Z,992.23
2018-02-05T03:15:06.954Z,992.21
2018-02-05T03:17:00.495Z,992.27
2018-02-05T03:18:00.132Z,992.25
2018-02-05T03:19:54.904Z,992.28
2018-02-05T03:20:54.900Z,992.30
2018-02-05T03:22:49.302Z,992.28
2018-02-05T03:23:49.215Z,992.28
2018-02-05T03:25:42.959Z,992.34
2018-02-05T03:26:42.631Z,992.33
2018-02-05T03:28:37.197Z,992.34
2018-02-05T03:29:37.049Z,992.30
2018-02-05T03:31:31.662Z,992.34
2018-02-05T03:32:31.598Z,992.33
2018-02-05T03:34:25.128Z,992.38
2018-02-05T03:35:24.743Z,992.42
2018-02-05T03:37:19.609Z,992.41
2018-02-05T03:38:19.429Z,992.41
2018-02-05T03:40:13.032Z,992.39
2018-02-05T03:41:12.979Z,992.41
2018-02-05T03:43:06.540Z,992.45
2018-02-05T03:44:06.452Z,992.47
2018-02-05T03:46:00.996Z,992.50
2018-02-05T03:47:00.898Z,992.48
2018-02-05T03:49:00.855Z,992.47
2018-02-05T03:50:01.213Z,992.50
2018-02-05T03:51:00.772Z,992.51
2018-02-05T03:52:00.662Z,992.49
2018-02-05T03:53:00.697Z,992.50
2018-02-05T03:54:00.538Z,992.54
2018-02-05T03:55:00.206Z,992.54
2018-02-05T03:56:00.209Z,992.54
2018-02-05T03:57:00.077Z,992.47
2018-02-05T03:58:00.452Z,992.50
2018-02-05T03:58:59.930Z,992.52
2018-02-05T03:59:59.891Z,992.52
2018-02-05T04:00:59.839Z,992.49
2018-02-05T04:01:59.814Z,992.48
2018-02-05T04:02:59.711Z,992.48
2018-02-05T04:03:59.675Z,992.51
2018-02-05T04:04:59.638Z,992.46
2018-02-05T04:05:59.564Z,992.41
2018-02-05T04:06:59.513Z,992.43
2018-02-05T04:07:59.449Z,992.40
2018-02-05T04:08:59.425Z,992.44
2018-02-05T04:09:59.347Z,992.44
2018-02-05T04:10:59.353Z,992.44
2018-02-05T04:11:59.258Z,992.48
2018-02-05T04:12:59.210Z,992.43
2018-02-05T04:13:59.143Z,992.47
2018-02-05T04:14:59.115Z,992.49
2018-02-05T04:15:59.073Z,992.46
2018-02-05T04:16:58.989Z,992.48
2018-02-05T04:17:58.954Z,992.47
2018-02-05T04:18:58.904Z,992.42
2018-02-05T04:19:58.849Z,992.50
2018-02-05T04:20:58.830Z,992.46
2018-02-05T04:21:58.753Z,992.47
2018-02-05T04:22:58.696Z,992.49
2018-02-05T04:23:58.642Z,992.43
2018-02-05T04:24:58.616Z,992.47
2018-02-05T04:25:58.538Z,992.45
2018-02-05T04:26:58.486Z,992.44
2018-02-05T04:27:58.443Z,992.46
2018-02-05T04:28:58.380Z,992.54
2018-02-05T04:29:58.323Z,992.50
2018-02-05T04:30:58.266Z,992.51
2018-02-05T04:31:58.229Z,992.55
2018-02-05T04:32:58.192Z,992.52
2018-02-05T04:33:58.111Z,992.58
2018-02-05T04:34:58.081Z,992.63
2018-02-05T04:35:58.050Z,992.61
2018-02-05T04:36:57.992Z,992.64
2018-02-05T04:37:57.954Z,992.64
2018-02-05T04:38:57.867Z,992.62
2018-02-05T04:39:57.813Z,992.63
2018-02-05T04:40:57.768Z,992.65
2018-02-05T04:41:57.739Z,992.63
2018-02-05T04:42:57.662Z,992.66
2018-02-05T04:43:57.605Z,992.65
2018-02-05T04:44:57.572Z,992.64
2018-02-05T04:45:57.503Z,992.64
2018-02-05T04:46:57.460Z,992.60
2018-02-05T04:47:57.403Z,992.66
2018-02-05T04:48:57.358Z,992.67
2018-02-05T04:49:57.299Z,992.69
2018-02-05T04:50:57.276Z,992.71
2018-02-05T04:51:57.209Z,992.70
2018-02-05T04:52:57.173Z,992.71
2018-02-05T04:53:57.099Z,992.73
2018-02-05T04:54:57.053Z,992.74
2018-02-05T04:55:57.000Z,992.70
2018-02-05T04:56:56.949Z,992.67
2018-02-05T04:57:56.901Z,992.69
2018-02-05T04:58:56.844Z,992.73
2018-02-05T04:59:56.816Z,992.71
2018-02-05T05:00:56.760Z,992.70
2018-02-05T05:01:56.717Z,992.70
2018-02-05T05:02:56.639Z,992.68
2018-02-05T05:03:56.601Z,992.73
2018-02-05T05:04:56.547Z,992.69
2018-02-05T05:05:56.491Z,992.69
2018-02-05T05:06:56.446Z,992.67
2018-02-05T05:07:56.387Z,992.72
2018-02-05T05:08:56.353Z,992.73
2018-02-05T05:09:56.314Z,992.77
2018-02-05T05:10:56.267Z,992.76
2018-02-05T05:11:56.252Z,992.75
2018-02-05T05:12:56.157Z,992.75
2018-02-05T05:13:56.089Z,992.78
2018-02-05T05:14:56.057Z,992.73
2018-02-05T05:15:56.004Z,992.70
2018-02-05T05:16:55.942Z,992.75
2018-02-05T05:17:55.890Z,992.75
2018-02-05T05:18:55.871Z,992.80
2018-02-05T05:19:55.798Z,992.79
2018-02-05T05:20:55.739Z,992.81
2018-02-05T05:21:55.702Z,992.86
2018-02-05T05:22:55.646Z,992.83
2018-02-05T05:23:55.589Z,992.82
2018-02-05T05:24:55.596Z,992.86
2018-02-05T05:25:55.488Z,992.82
2018-02-05T05:26:55.437Z,992.83
2018-02-05T05:27:55.392Z,992.88
2018-02-05T05:28:55.369Z,992.93
2018-02-05T05:29:55.293Z,992.93
2018-02-05T05:30:55.235Z,992.90
2018-02-05T05:31:55.193Z,992.92
2018-02-05T05:32:55.135Z,992.92
2018-02-05T05:33:55.091Z,992.99
2018-02-05T05:34:55.048Z,993.00
2018-02-05T05:35:54.992Z,993.01
2018-02-05T05:36:54.944Z,993.00
2018-02-05T05:37:54.896Z,993.03
2018-02-05T05:38:54.876Z,993.04
2018-02-05T05:39:54.814Z,993.02
2018-02-05T05:40:54.755Z,993.02
2018-02-05T05:41:54.706Z,993.06
2018-02-05T05:42:54.641Z,993.03
2018-02-05T05:43:54.602Z,993.09
2018-02-05T05:44:54.537Z,993.09
2018-02-05T05:45:54.490Z,993.13
2018-02-05T05:46:54.440Z,993.13
2018-02-05T05:47:54.385Z,993.13
2018-02-05T05:48:54.353Z,993.14
2018-02-05T05:49:54.292Z,993.17
2018-02-05T05:50:54.241Z,993.21
2018-02-05T05:51:54.224Z,993.20
2018-02-05T05:52:54.147Z,993.20
2018-02-05T05:53:54.182Z,993.17
2018-02-05T05:54:54.049Z,993.17
2018-02-05T05:55:53.993Z,993.14
2018-02-05T05:56:53.960Z,993.16
2018-02-05T05:57:53.918Z,993.20
2018-02-05T05:58:53.858Z,993.20
2018-02-05T05:59:53.832Z,993.20
2018-02-05T06:00:53.749Z,993.19
2018-02-05T06:01:53.694Z,993.21
2018-02-05T06:02:53.663Z,993.26
2018-02-05T06:03:53.599Z,993.22
2018-02-05T06:04:53.559Z,993.25
2018-02-05T06:05:53.504Z,993.22
2018-02-05T06:06:53.486Z,993.25
2018-02-05T06:07:53.420Z,993.24
2018-02-05T06:08:53.351Z,993.26
2018-02-05T06:09:53.302Z,993.26
2018-02-05T06:10:53.254Z,993.29
2018-02-05T06:11:53.213Z,993.31
2018-02-05T06:12:53.153Z,993.31
2018-02-05T06:13:53.110Z,993.24
2018-02-05T06:14:53.058Z,993.29
2018-02-05T06:15:53.006Z,993.25
2018-02-05T06:16:52.956Z,993.23
2018-02-05T06:17:52.921Z,993.21
2018-02-05T06:18:52.851Z,993.21
2018-02-05T06:19:54.437Z,993.22
2018-02-05T06:20:52.760Z,993.27
2018-02-05T06:21:52.707Z,993.26
2018-02-05T06:22:52.659Z,993.26
2018-02-05T06:23:52.606Z,993.29
2018-02-05T06:24:52.594Z,993.35
2018-02-05T06:25:52.505Z,993.38
2018-02-05T06:26:52.457Z,993.30
2018-02-05T06:27:52.452Z,993.31
2018-02-05T06:28:52.358Z,993.31
2018-02-05T06:29:52.304Z,993.37
2018-02-05T06:30:52.283Z,993.40
2018-02-05T06:31:52.215Z,993.40
2018-02-05T06:32:52.163Z,993.42
2018-02-05T06:33:52.118Z,993.42
2018-02-05T06:34:52.064Z,993.42
2018-02-05T06:35:52.017Z,993.46
2018-02-05T06:36:51.975Z,993.44
2018-02-05T06:37:51.924Z,993.41
2018-02-05T06:38:51.878Z,993.40
2018-02-05T06:39:51.823Z,993.41
2018-02-05T06:40:51.797Z,993.40
2018-02-05T06:41:51.716Z,993.41
2018-02-05T06:42:51.672Z,993.43
2018-02-05T06:43:51.619Z,993.42
2018-02-05T06:44:51.562Z,993.42
2018-02-05T06:45:51.520Z,993.41
2018-02-05T06:46:51.472Z,993.36
2018-02-05T06:47:51.439Z,993.40
2018-02-05T06:48:51.397Z,993.40
2018-02-05T06:49:51.335Z,993.47
2018-02-05T06:50:51.285Z,993.54
2018-02-05T06:51:51.230Z,993.53
2018-02-05T06:52:51.175Z,993.51
2018-02-05T06:53:51.133Z,993.48
2018-02-05T06:54:51.076Z,993.47
2018-02-05T06:55:51.052Z,993.48
2018-02-05T06:56:51.004Z,993.51
2018-02-05T06:57:50.934Z,993.50
2018-02-05T06:58:50.898Z,993.50
2018-02-05T06:59:50.829Z,993.47
2018-02-05T07:00:50.876Z,993.52
2018-02-05T07:01:50.793Z,993.47
2018-02-05T07:02:50.691Z,993.48
2018-02-05T07:03:50.634Z,993.47
2018-02-05T07:04:50.583Z,993.50
2018-02-05T07:05:50.543Z,993.47
2018-02-05T07:06:50.491Z,993.52
2018-02-05T07:07:50.441Z,993.50
2018-02-05T07:08:50.388Z,993.52
2018-02-05T07:09:50.359Z,993.49
2018-02-05T07:10:50.318Z,993.49
2018-02-05T07:11:50.277Z,993.45
2018-02-05T07:12:50.224Z,993.42
2018-02-05T07:13:50.158Z,993.43
2018-02-05T07:14:50.099Z,993.44
2018-02-05T07:15:50.046Z,993.47
2018-02-05T07:16:50.006Z,993.47
2018-02-05T07:17:49.964Z,993.49
2018-02-05T07:18:49.915Z,993.45
2018-02-05T07:19:49.864Z,993.45
2018-02-05T07:20:49.805Z,993.44
2018-02-05T07:21:49.776Z,993.46
2018-02-05T07:22:49.750Z,993.49
2018-02-05T07:23:49.663Z,993.49
2018-02-05T07:24:49.660Z,993.50
2018-02-05T07:25:49.553Z,993.46
2018-02-05T07:26:49.580Z,993.49
2018-02-05T07:27:49.466Z,993.51
2018-02-05T07:28:49.417Z,993.47
2018-02-05T07:29:49.371Z,993.50
2018-02-05T07:30:49.341Z,993.46
2018-02-05T07:31:49.270Z,993.51
2018-02-05T07:32:49.218Z,993.50
2018-02-05T07:33:49.210Z,993.51
2018-02-05T07:34:49.143Z,993.54
2018-02-05T07:35:49.091Z,993.55
2018-02-05T07:36:49.016Z,993.54
2018-02-05T07:37:48.980Z,993.60
2018-02-05T07:38:48.989Z,993.55
2018-02-05T07:39:48.878Z,993.58
2018-02-05T07:40:48.828Z,993.57
2018-02-05T07:41:48.783Z,993.63
2018-02-05T07:42:48.746Z,993.62
2018-02-05T07:43:48.684Z,993.64
2018-02-05T07:44:48.642Z,993.66
2018-02-05T07:45:48.625Z,993.65
2018-02-05T07:46:48.539Z,993.66
2018-02-05T07:47:48.475Z,993.63
2018-02-05T07:48:48.466Z,993.63
2018-02-05T07:49:48.386Z,993.64
2018-02-05T07:50:48.362Z,993.65
2018-02-05T07:51:48.287Z,993.64
2018-02-05T07:52:48.374Z,993.66
2018-02-05T07:53:48.222Z,993.68
2018-02-05T07:54:48.196Z,993.67
2018-02-05T07:55:48.115Z,993.69
2018-02-05T07:56:48.047Z,993.72
2018-02-05T07:57:47.994Z,993.70
2018-02-05T07:58:47.937Z,993.70
2018-02-05T07:59:47.895Z,993.74
2018-02-05T08:00:47.839Z,993.72
2018-02-05T08:01:47.798Z,993.75
2018-02-05T08:02:47.752Z,993.76
2018-02-05T08:03:47.691Z,993.76
2018-02-05T08:04:47.654Z,993.75
2018-02-05T08:05:47.616Z,993.77
2018-02-05T08:06:47.574Z,993.78
2018-02-05T08:07:47.518Z,993.78
2018-02-05T08:08:47.453Z,993.79
2018-02-05T08:09:47.433Z,993.81
2018-02-05T08:10:47.437Z,993.81
2018-02-05T08:11:47.355Z,993.79
2018-02-05T08:12:47.313Z,993.77
2018-02-05T08:13:47.226Z,993.81
2018-02-05T08:14:47.172Z,993.79
2018-02-05T08:15:47.140Z,993.75
2018-02-05T08:16:47.057Z,993.78
2018-02-05T08:17:47.034Z,993.81
2018-02-05T08:18:46.986Z,993.78
2018-02-05T08:19:46.942Z,993.82
2018-02-05T08:20:46.892Z,993.82
2018-02-05T08:21:46.856Z,993.82
2018-02-05T08:22:46.797Z,993.82
2018-02-05T08:23:46.749Z,993.83
2018-02-05T08:24:46.690Z,993.82
2018-02-05T08:25:46.656Z,993.86
2018-02-05T08:26:46.588Z,993.82
2018-02-05T08:27:46.574Z,993.85
2018-02-05T08:28:46.504Z,993.83
2018-02-05T08:29:46.451Z,993.81
2018-02-05T08:30:46.405Z,993.84
2018-02-05T08:31:46.405Z,993.82
2018-02-05T08:32:46.338Z,993.84
2018-02-05T08:33:46.255Z,993.84
2018-02-05T08:34:46.244Z,993.81
2018-02-05T08:35:46.155Z,993.83
2018-02-05T08:36:46.122Z,993.85
2018-02-05T08:37:46.078Z,993.88
2018-02-05T08:38:46.095Z,993.90
2018-02-05T08:39:45.982Z,993.89
2018-02-05T08:40:45.952Z,993.87
2018-02-05T08:41:45.883Z,993.93
2018-02-05T08:42:45.831Z,993.90
2018-02-05T08:43:45.786Z,993.90
2018-02-05T08:44:45.730Z,993.89
2018-02-05T08:45:45.686Z,993.87
2018-02-05T08:46:45.648Z,993.88
2018-02-05T08:47:45.590Z,993.87
2018-02-05T08:48:45.531Z,993.84
2018-02-05T08:49:45.501Z,993.83
2018-02-05T08:50:45.458Z,993.84
2018-02-05T08:51:45.395Z,993.88
2018-02-05T08:52:45.354Z,993.84
2018-02-05T08:53:45.325Z,993.85
2018-02-05T08:54:45.256Z,993.86
2018-02-05T08:55:45.256Z,993.89
2018-02-05T08:56:45.164Z,993.93
2018-02-05T08:57:45.121Z,993.90
2018-02-05T08:58:45.073Z,993.85
2018-02-05T08:59:45.022Z,993.88
2018-02-05T09:00:45.009Z,993.82
2018-02-05T09:01:44.919Z,993.83
2018-02-05T09:02:44.884Z,993.85
2018-02-05T09:03:44.829Z,993.87
2018-02-05T09:04:44.815Z,993.88
2018-02-05T09:05:44.744Z,993.89
2018-02-05T09:06:44.711Z,993.85
2018-02-05T09:07:44.648Z,993.85
2018-02-05T09:08:44.594Z,993.92
2018-02-05T09:09:44.549Z,993.87
2018-02-05T09:10:44.526Z,993.86
2018-02-05T09:11:44.452Z,993.90
2018-02-05T09:12:44.411Z,993.90
2018-02-05T09:13:44.356Z,993.90
2018-02-05T09:14:44.319Z,993.93
2018-02-05T09:15:44.295Z,993.93
2018-02-05T09:16:44.225Z,993.92
2018-02-05T09:17:44.177Z,993.91
2018-02-05T09:18:44.152Z,993.89
2018-02-05T09:19:44.091Z,993.94
2018-02-05T09:20:44.043Z,993.93
2018-02-05T09:21:44.015Z,993.92
2018-02-05T09:22:43.933Z,993.90
2018-02-05T09:23:43.906Z,993.88
2018-02-05T09:24:43.852Z,993.89
2018-02-05T09:25:43.807Z,993.86
2018-02-05T09:26:43.745Z,993.86
2018-02-05T09:27:43.727Z,993.80
2018-02-05T09:28:43.709Z,993.82
2018-02-05T09:29:43.629Z,993.82
2018-02-05T09:30:43.573Z,993.83
2018-02-05T09:31:43.536Z,993.82
2018-02-05T09:32:43.463Z,993.82
2018-02-05T09:33:43.425Z,993.81
2018-02-05T09:34:43.383Z,993.83
2018-02-05T09:35:43.331Z,993.79
2018-02-05T09:36:43.300Z,993.83
2018-02-05T09:37:43.235Z,993.82
2018-02-05T09:38:43.201Z,993.82
2018-02-05T09:39:43.133Z,993.82
2018-02-05T09:40:43.095Z,993.80
2018-02-05T09:41:43.043Z,993.79
2018-02-05T09:42:43.003Z,993.86
2018-02-05T09:43:43.002Z,993.87
2018-02-05T09:44:42.932Z,993.85
2018-02-05T09:45:42.866Z,993.87
2018-02-05T09:46:42.821Z,993.87
2018-02-05T09:47:42.776Z,993.89
2018-02-05T09:48:42.718Z,993.90
2018-02-05T09:49:42.690Z,993.84
2018-02-05T09:50:42.634Z,993.88
2018-02-05T09:51:42.597Z,993.90
2018-02-05T09:52:42.541Z,993.83
2018-02-05T09:53:42.504Z,993.85
2018-02-05T09:54:42.460Z,993.83
2018-02-05T09:55:42.410Z,993.82
2018-02-05T09:56:42.371Z,993.82
2018-02-05T09:57:42.309Z,993.80
2018-02-05T09:58:42.295Z,993.82
2018-02-05T09:59:42.223Z,993.83
2018-02-05T10:00:42.188Z,993.84
2018-02-05T10:01:42.145Z,993.85
2018-02-05T10:02:42.110Z,993.89
2018-02-05T10:03:42.055Z,993.85
2018-02-05T10:04:42.014Z,993.85
2018-02-05T10:05:41.948Z,993.87
2018-02-05T10:06:41.924Z,993.88
2018-02-05T10:07:41.848Z,993.91
2018-02-05T10:08:41.799Z,993.86
2018-02-05T10:09:41.766Z,993.85
2018-02-05T10:10:41.726Z,993.86
2018-02-05T10:11:41.654Z,993.90
2018-02-05T10:12:41.627Z,993.86
2018-02-05T10:13:41.565Z,993.86
2018-02-05T10:14:41.519Z,993.86
2018-02-05T10:15:41.486Z,993.87
2018-02-05T10:16:41.436Z,993.86
2018-02-05T10:17:41.393Z,993.84
2018-02-05T10:18:41.330Z,993.82
2018-02-05T10:19:41.292Z,993.76
2018-02-05T10:20:41.243Z,993.71
2018-02-05T10:21:41.202Z,993.71
2018-02-05T10:22:41.166Z,993.72
2018-02-05T10:23:41.106Z,993.69
2018-02-05T10:24:41.069Z,993.66
2018-02-05T10:25:41.018Z,993.65
2018-02-05T10:26:41.011Z,993.65
2018-02-05T10:27:40.947Z,993.63
2018-02-05T10:28:40.880Z,993.64
2018-02-05T10:29:40.841Z,993.66
2018-02-05T10:30:40.788Z,993.69
2018-02-05T10:31:40.762Z,993.67
2018-02-05T10:32:40.703Z,993.70
2018-02-05T10:33:40.654Z,993.66
2018-02-05T10:34:40.652Z,993.67
2018-02-05T10:35:40.576Z,993.68
2018-02-05T10:36:40.534Z,993.71
2018-02-05T10:37:40.499Z,993.71
2018-02-05T10:38:40.436Z,993.68
2018-02-05T10:39:40.421Z,993.68
2018-02-05T10:40:40.409Z,993.64
2018-02-05T10:41:40.390Z,993.67
2018-02-05T10:42:40.266Z,993.63
2018-02-05T10:43:40.229Z,993.65
2018-02-05T10:44:40.184Z,993.64
2018-02-05T10:45:40.167Z,993.64
2018-02-05T10:46:40.123Z,993.62
2018-02-05T10:47:40.121Z,993.67
2018-02-05T10:48:40.052Z,993.62
2018-02-05T10:49:39.988Z,993.59
2018-02-05T10:50:40.021Z,993.62
2018-02-05T10:51:39.916Z,993.62
2018-02-05T10:52:39.869Z,993.65
2018-02-05T10:53:39.828Z,993.60
2018-02-05T10:54:39.795Z,993.57
2018-02-05T10:55:39.745Z,993.62
2018-02-05T10:56:39.705Z,993.61
2018-02-05T10:57:39.662Z,993.57
2018-02-05T10:58:39.637Z,993.60
2018-02-05T10:59:39.590Z,993.59
2018-02-05T11:00:39.558Z,993.60
2018-02-05T11:01:39.532Z,993.56
2018-02-05T11:02:39.473Z,993.62
2018-02-05T11:03:39.478Z,993.56
2018-02-05T11:04:39.375Z,993.56
2018-02-05T11:05:39.357Z,993.54
2018-02-05T11:06:39.295Z,993.50
2018-02-05T11:07:39.267Z,993.53
2018-02-05T11:08:39.229Z,993.53
2018-02-05T11:09:39.186Z,993.53
2018-02-05T11:10:39.148Z,993.50
2018-02-05T11:11:39.095Z,993.48
2018-02-05T11:12:39.073Z,993.46
2018-02-05T11:13:39.002Z,993.43
2018-02-05T11:14:38.955Z,993.48
2018-02-05T11:15:38.924Z,993.48
2018-02-05T11:16:38.877Z,993.47
2018-02-05T11:17:38.837Z,993.49
2018-02-05T11:18:38.794Z,993.48
2018-02-05T11:19:38.750Z,993.48
2018-02-05T11:20:38.724Z,993.48
2018-02-05T11:21:38.677Z,993.51
2018-02-05T11:22:38.644Z,993.48
2018-02-05T11:23:38.583Z,993.50
2018-02-05T11:24:38.565Z,993.50
2018-02-05T11:25:38.494Z,993.52
2018-02-05T11:26:38.450Z,993.45
2018-02-05T11:27:38.402Z,993.41
2018-02-05T11:28:38.357Z,993.42
2018-02-05T11:29:38.311Z,993.36
2018-02-05T11:30:38.285Z,993.38
2018-02-05T11:31:38.253Z,993.36
2018-02-05T11:32:38.293Z,993.37
2018-02-05T11:33:38.154Z,993.34
2018-02-05T11:34:38.110Z,993.35
2018-02-05T11:35:38.095Z,993.33
2018-02-05T11:36:38.168Z,993.29
2018-02-05T11:37:37.975Z,993.33
2018-02-05T11:38:37.994Z,993.33
2018-02-05T11:39:37.881Z,993.34
2018-02-05T11:40:37.848Z,993.35
2018-02-05T11:41:37.801Z,993.40
2018-02-05T11:42:37.777Z,993.29
2018-02-05T11:43:37.753Z,993.32
2018-02-05T11:44:37.673Z,993.30
2018-02-05T11:45:37.622Z,993.26
2018-02-05T11:46:37.584Z,993.24
2018-02-05T11:47:37.568Z,993.25
2018-02-05T11:48:37.499Z,993.21
2018-02-05T11:49:37.579Z,993.26
2018-02-05T11:50:37.437Z,993.19
2018-02-05T11:51:37.404Z,993.17
2018-02-05T11:52:37.340Z,993.22
2018-02-05T11:53:37.275Z,993.18
2018-02-05T11:54:37.232Z,993.15
2018-02-05T11:55:37.180Z,993.14
2018-02-05T11:56:37.136Z,993.20
2018-02-05T11:57:37.082Z,993.18
2018-02-05T11:58:37.054Z,993.20
2018-02-05T11:59:37.008Z,993.22
2018-02-05T12:00:36.973Z,993.23
2018-02-05T12:01:36.915Z,993.19
2018-02-05T12:02:36.879Z,993.23
2018-02-05T12:03:36.832Z,993.17
2018-02-05T12:04:36.780Z,993.20
2018-02-05T12:05:36.736Z,993.18
2018-02-05T12:06:36.708Z,993.12
2018-02-05T12:07:36.641Z,993.12
2018-02-05T12:08:36.622Z,993.12
2018-02-05T12:09:36.550Z,993.11
2018-02-05T12:10:36.510Z,993.06
2018-02-05T12:11:36.469Z,993.10
2018-02-05T12:12:36.438Z,993.00
2018-02-05T12:13:36.368Z,993.02
2018-02-05T12:14:36.330Z,992.98
2018-02-05T12:15:36.291Z,993.00
2018-02-05T12:16:36.236Z,993.00
2018-02-05T12:17:36.200Z,993.02
2018-02-05T12:18:36.173Z,993.01
2018-02-05T12:19:36.113Z,993.04
2018-02-05T12:20:36.058Z,993.00
2018-02-05T12:21:36.010Z,992.95
2018-02-05T12:22:35.970Z,992.99
2018-02-05T12:23:35.926Z,993.00
2018-02-05T12:24:35.921Z,993.00
2018-02-05T12:25:35.841Z,993.03
2018-02-05T12:26:35.811Z,992.95
2018-02-05T12:27:35.734Z,993.03
2018-02-05T12:28:35.702Z,993.04
2018-02-05T12:29:35.662Z,993.00
2018-02-05T12:30:35.610Z,992.97
2018-02-05T12:31:35.563Z,992.99
2018-02-05T12:32:35.528Z,992.96
2018-02-05T12:33:35.487Z,992.95
2018-02-05T12:34:35.434Z,993.00
2018-02-05T12:35:35.384Z,993.00
2018-02-05T12:36:35.349Z,992.94
2018-02-05T12:37:35.298Z,993.00
2018-02-05T12:38:35.247Z,992.95
2018-02-05T12:39:35.200Z,992.91
2018-02-05T12:40:35.152Z,992.91
2018-02-05T12:41:35.113Z,992.91
2018-02-05T12:42:35.064Z,992.90
2018-02-05T12:43:35.037Z,992.89
2018-02-05T12:44:34.984Z,992.86
2018-02-05T12:45:34.930Z,992.86
2018-02-05T12:46:34.878Z,992.86
2018-02-05T12:47:34.837Z,992.82
2018-02-05T12:48:34.801Z,992.83
2018-02-05T12:49:34.760Z,992.82
2018-02-05T12:50:34.701Z,992.78
2018-02-05T12:51:35.165Z,992.76
2018-02-05T12:52:34.614Z,992.77
2018-02-05T12:53:34.584Z,992.71
2018-02-05T12:54:34.518Z,992.75
2018-02-05T12:55:34.493Z,992.77
2018-02-05T12:56:34.436Z,992.75
2018-02-05T12:57:34.400Z,992.70
2018-02-05T12:58:34.340Z,992.63
2018-02-05T12:59:34.312Z,992.65
2018-02-05T13:00:34.241Z,992.65
2018-02-05T13:01:34.220Z,992.59